sensor_id;sensor_type;location;lat;lon;timestamp;temperature;humidity
14397;DHT22;50653;47.810;13.022;2022-12-07T00:01:42;4.50;99.90
14397;DHT22;50653;47.810;13.022;2022-12-07T00:04:12;4.50;99.90
14397;DHT22;50653;47.810;13.022;2022-12-07T00:06:40;4.50;99.90
14397;DHT22;50653;47.810;13.022;2022-12-07T00:09:08;4.30;99.90
14397;DHT22;50653;47.810;13.022;2022-12-07T00:11:34;4.20;99.90
14397;DHT22;50653;47.810;13.022;2022-12-07T00:14:03;4.30;99.90
14397;DHT22;50653;47.810;13.022;2022-12-07T00:16:31;4.40;99.90
14397;DHT22;50653;47.810;13.022;2022-12-07T00:18:57;4.40;99.90
14397;DHT22;50653;47.810;13.022;2022-12-07T00:21:28;4.40;99.90
14397;DHT22;50653;47.810;13.022;2022-12-07T00:23:55;4.50;99.90
14397;DHT22;50653;47.810;13.022;2022-12-07T00:28:56;4.50;99.90
14397;DHT22;50653;47.810;13.022;2022-12-07T00:31:24;4.50;99.90
14397;DHT22;50653;47.810;13.022;2022-12-07T00:33:51;4.50;99.90
14397;DHT22;50653;47.810;13.022;2022-12-07T00:36:20;4.50;99.90
14397;DHT22;50653;47.810;13.022;2022-12-07T00:38:45;4.40;99.90
14397;DHT22;50653;47.810;13.022;2022-12-07T00:41:13;4.50;99.90
14397;DHT22;50653;47.810;13.022;2022-12-07T00:43:40;4.50;99.90
14397;DHT22;50653;47.810;13.022;2022-12-07T00:46:06;4.40;99.90
14397;DHT22;50653;47.810;13.022;2022-12-07T00:48:32;4.50;99.90
14397;DHT22;50653;47.810;13.022;2022-12-07T00:50:58;4.50;99.90
14397;DHT22;50653;47.810;13.022;2022-12-07T00:53:24;4.50;99.90
14397;DHT22;50653;47.810;13.022;2022-12-07T00:55:49;4.60;99.90
14397;DHT22;50653;47.810;13.022;2022-12-07T00:58:15;4.50;99.90
14397;DHT22;50653;47.810;13.022;2022-12-07T01:00:42;4.50;99.90
14397;DHT22;50653;47.810;13.022;2022-12-07T01:03:10;4.40;99.90
14397;DHT22;50653;47.810;13.022;2022-12-07T01:05:36;4.50;99.90
14397;DHT22;50653;47.810;13.022;2022-12-07T01:08:02;4.50;99.90
14397;DHT22;50653;47.810;13.022;2022-12-07T01:10:28;4.50;99.90
14397;DHT22;50653;47.810;13.022;2022-12-07T01:12:55;4.40;99.90
14397;DHT22;50653;47.810;13.022;2022-12-07T01:15:21;4.40;99.90
14397;DHT22;50653;47.810;13.022;2022-12-07T01:17:47;4.50;99.90
14397;DHT22;50653;47.810;13.022;2022-12-07T01:20:13;4.50;99.90
14397;DHT22;50653;47.810;13.022;2022-12-07T01:22:40;4.60;99.90
14397;DHT22;50653;47.810;13.022;2022-12-07T01:25:07;4.60;99.90
14397;DHT22;50653;47.810;13.022;2022-12-07T01:27:33;4.60;99.90
14397;DHT22;50653;47.810;13.022;2022-12-07T01:29:59;4.60;99.90
14397;DHT22;50653;47.810;13.022;2022-12-07T01:32:26;4.50;99.90
14397;DHT22;50653;47.810;13.022;2022-12-07T01:34:51;4.60;99.90
14397;DHT22;50653;47.810;13.022;2022-12-07T01:37:17;4.50;99.90
14397;DHT22;50653;47.810;13.022;2022-12-07T01:39:42;4.50;99.90
14397;DHT22;50653;47.810;13.022;2022-12-07T01:42:12;4.60;99.90
14397;DHT22;50653;47.810;13.022;2022-12-07T01:47:42;4.50;99.90
14397;DHT22;50653;47.810;13.022;2022-12-07T01:50:09;4.40;99.90
14397;DHT22;50653;47.810;13.022;2022-12-07T01:52:37;4.50;99.90
14397;DHT22;50653;47.810;13.022;2022-12-07T01:55:08;4.50;99.90
14397;DHT22;50653;47.810;13.022;2022-12-07T01:57:38;4.50;99.90
14397;DHT22;50653;47.810;13.022;2022-12-07T02:00:07;4.50;99.90
14397;DHT22;50653;47.810;13.022;2022-12-07T02:02:51;4.50;99.90
14397;DHT22;50653;47.810;13.022;2022-12-07T02:05:19;4.60;99.90
14397;DHT22;50653;47.810;13.022;2022-12-07T02:07:47;4.50;99.90
14397;DHT22;50653;47.810;13.022;2022-12-07T02:10:22;4.40;99.90
14397;DHT22;50653;47.810;13.022;2022-12-07T02:12:54;4.50;99.90
14397;DHT22;50653;47.810;13.022;2022-12-07T02:15:22;4.40;99.90
14397;DHT22;50653;47.810;13.022;2022-12-07T02:18:11;4.40;99.90
14397;DHT22;50653;47.810;13.022;2022-12-07T02:21:06;4.40;99.90
14397;DHT22;50653;47.810;13.022;2022-12-07T02:24:01;4.40;99.90
14397;DHT22;50653;47.810;13.022;2022-12-07T02:34:51;4.20;99.90
14397;DHT22;50653;47.810;13.022;2022-12-07T02:40:14;4.30;99.90
14397;DHT22;50653;47.810;13.022;2022-12-07T02:42:47;4.20;99.90
14397;DHT22;50653;47.810;13.022;2022-12-07T02:45:20;4.10;99.90
14397;DHT22;50653;47.810;13.022;2022-12-07T02:47:49;4.00;99.90
14397;DHT22;50653;47.810;13.022;2022-12-07T02:50:21;4.00;99.90
14397;DHT22;50653;47.810;13.022;2022-12-07T02:52:46;4.00;99.90
14397;DHT22;50653;47.810;13.022;2022-12-07T02:55:15;4.20;99.90
14397;DHT22;50653;47.810;13.022;2022-12-07T02:57:53;4.00;99.90
14397;DHT22;50653;47.810;13.022;2022-12-07T03:00:20;4.00;99.90
14397;DHT22;50653;47.810;13.022;2022-12-07T03:02:57;4.00;99.90
14397;DHT22;50653;47.810;13.022;2022-12-07T03:11:03;3.90;99.90
14397;DHT22;50653;47.810;13.022;2022-12-07T03:16:05;3.80;99.90
14397;DHT22;50653;47.810;13.022;2022-12-07T03:18:37;3.90;99.90
14397;DHT22;50653;47.810;13.022;2022-12-07T03:21:08;3.80;99.90
14397;DHT22;50653;47.810;13.022;2022-12-07T03:23:35;3.70;99.90
14397;DHT22;50653;47.810;13.022;2022-12-07T03:26:04;3.70;99.90
14397;DHT22;50653;47.810;13.022;2022-12-07T03:28:36;3.70;99.90
14397;DHT22;50653;47.810;13.022;2022-12-07T03:31:13;3.80;99.90
14397;DHT22;50653;47.810;13.022;2022-12-07T03:33:58;3.70;99.90
14397;DHT22;50653;47.810;13.022;2022-12-07T03:36:37;3.70;99.90
14397;DHT22;50653;47.810;13.022;2022-12-07T03:39:17;3.80;99.90
14397;DHT22;50653;47.810;13.022;2022-12-07T03:41:46;3.80;99.90
14397;DHT22;50653;47.810;13.022;2022-12-07T03:44:13;3.80;99.90
14397;DHT22;50653;47.810;13.022;2022-12-07T03:57:39;3.80;99.90
14397;DHT22;50653;47.810;13.022;2022-12-07T04:00:06;3.80;99.90
14397;DHT22;50653;47.810;13.022;2022-12-07T04:02:38;3.80;99.90
14397;DHT22;50653;47.810;13.022;2022-12-07T04:05:04;3.70;99.90
14397;DHT22;50653;47.810;13.022;2022-12-07T04:07:30;3.70;99.90
14397;DHT22;50653;47.810;13.022;2022-12-07T04:09:55;3.80;99.90
14397;DHT22;50653;47.810;13.022;2022-12-07T04:12:22;3.80;99.90
14397;DHT22;50653;47.810;13.022;2022-12-07T04:14:48;3.80;99.90
14397;DHT22;50653;47.810;13.022;2022-12-07T04:17:13;3.70;99.90
14397;DHT22;50653;47.810;13.022;2022-12-07T04:19:39;3.70;99.90
14397;DHT22;50653;47.810;13.022;2022-12-07T04:22:05;3.80;99.90
14397;DHT22;50653;47.810;13.022;2022-12-07T04:24:32;3.70;99.90
14397;DHT22;50653;47.810;13.022;2022-12-07T04:26:58;3.70;99.90
14397;DHT22;50653;47.810;13.022;2022-12-07T04:29:24;3.70;99.90
14397;DHT22;50653;47.810;13.022;2022-12-07T04:31:50;3.70;99.90
14397;DHT22;50653;47.810;13.022;2022-12-07T04:34:16;3.80;99.90
14397;DHT22;50653;47.810;13.022;2022-12-07T04:36:43;3.90;99.90
14397;DHT22;50653;47.810;13.022;2022-12-07T04:41:45;4.00;99.90
14397;DHT22;50653;47.810;13.022;2022-12-07T04:44:13;3.80;99.90
14397;DHT22;50653;47.810;13.022;2022-12-07T04:46:40;3.70;99.90
14397;DHT22;50653;47.810;13.022;2022-12-07T04:49:06;3.70;99.90
14397;DHT22;50653;47.810;13.022;2022-12-07T04:51:32;3.70;99.90
14397;DHT22;50653;47.810;13.022;2022-12-07T04:53:57;3.80;99.90
14397;DHT22;50653;47.810;13.022;2022-12-07T04:56:23;3.80;99.90
14397;DHT22;50653;47.810;13.022;2022-12-07T04:58:51;3.80;99.90
14397;DHT22;50653;47.810;13.022;2022-12-07T05:01:18;3.80;99.90
14397;DHT22;50653;47.810;13.022;2022-12-07T05:03:44;3.80;99.90
14397;DHT22;50653;47.810;13.022;2022-12-07T05:06:11;3.90;99.90
14397;DHT22;50653;47.810;13.022;2022-12-07T05:08:36;3.90;99.90
14397;DHT22;50653;47.810;13.022;2022-12-07T05:11:04;3.80;99.90
14397;DHT22;50653;47.810;13.022;2022-12-07T05:13:30;3.80;99.90
14397;DHT22;50653;47.810;13.022;2022-12-07T05:15:56;3.80;99.90
14397;DHT22;50653;47.810;13.022;2022-12-07T05:18:22;3.90;99.90
14397;DHT22;50653;47.810;13.022;2022-12-07T05:20:48;3.80;99.90
14397;DHT22;50653;47.810;13.022;2022-12-07T05:23:14;3.90;99.90
14397;DHT22;50653;47.810;13.022;2022-12-07T05:25:40;3.90;99.90
14397;DHT22;50653;47.810;13.022;2022-12-07T05:28:06;3.90;99.90
14397;DHT22;50653;47.810;13.022;2022-12-07T05:30:32;3.90;99.90
14397;DHT22;50653;47.810;13.022;2022-12-07T05:32:58;3.80;99.90
14397;DHT22;50653;47.810;13.022;2022-12-07T05:35:24;3.90;99.90
14397;DHT22;50653;47.810;13.022;2022-12-07T05:37:49;3.90;99.90
14397;DHT22;50653;47.810;13.022;2022-12-07T05:40:15;3.80;99.90
14397;DHT22;50653;47.810;13.022;2022-12-07T05:42:41;3.80;99.90
14397;DHT22;50653;47.810;13.022;2022-12-07T05:45:08;3.80;99.90
14397;DHT22;50653;47.810;13.022;2022-12-07T05:47:36;3.80;99.90
14397;DHT22;50653;47.810;13.022;2022-12-07T05:50:02;3.80;99.90
14397;DHT22;50653;47.810;13.022;2022-12-07T05:52:28;3.80;99.90
14397;DHT22;50653;47.810;13.022;2022-12-07T05:54:53;3.80;99.90
14397;DHT22;50653;47.810;13.022;2022-12-07T05:57:19;3.90;99.90
14397;DHT22;50653;47.810;13.022;2022-12-07T05:59:44;3.80;99.90
14397;DHT22;50653;47.810;13.022;2022-12-07T06:02:12;3.70;99.90
14397;DHT22;50653;47.810;13.022;2022-12-07T06:04:42;3.80;99.90
14397;DHT22;50653;47.810;13.022;2022-12-07T06:07:08;3.80;99.90
14397;DHT22;50653;47.810;13.022;2022-12-07T06:09:34;3.80;99.90
14397;DHT22;50653;47.810;13.022;2022-12-07T06:12:00;3.90;99.90
14397;DHT22;50653;47.810;13.022;2022-12-07T06:14:44;3.90;99.90
14397;DHT22;50653;47.810;13.022;2022-12-07T06:17:11;4.00;99.90
14397;DHT22;50653;47.810;13.022;2022-12-07T06:19:37;3.90;99.90
14397;DHT22;50653;47.810;13.022;2022-12-07T06:22:03;3.90;99.90
14397;DHT22;50653;47.810;13.022;2022-12-07T06:24:30;3.90;99.90
14397;DHT22;50653;47.810;13.022;2022-12-07T06:26:56;3.90;99.90
14397;DHT22;50653;47.810;13.022;2022-12-07T06:29:21;3.90;99.90
14397;DHT22;50653;47.810;13.022;2022-12-07T06:31:47;3.80;99.90
14397;DHT22;50653;47.810;13.022;2022-12-07T06:34:18;3.80;99.90
14397;DHT22;50653;47.810;13.022;2022-12-07T06:36:44;3.80;99.90
14397;DHT22;50653;47.810;13.022;2022-12-07T06:39:11;3.80;99.90
14397;DHT22;50653;47.810;13.022;2022-12-07T06:41:38;3.80;99.90
14397;DHT22;50653;47.810;13.022;2022-12-07T06:44:07;3.80;99.90
14397;DHT22;50653;47.810;13.022;2022-12-07T06:46:33;3.70;99.90
14397;DHT22;50653;47.810;13.022;2022-12-07T06:49:00;3.80;99.90
14397;DHT22;50653;47.810;13.022;2022-12-07T06:51:26;3.80;99.90
14397;DHT22;50653;47.810;13.022;2022-12-07T06:53:52;3.80;99.90
14397;DHT22;50653;47.810;13.022;2022-12-07T06:56:18;3.80;99.90
14397;DHT22;50653;47.810;13.022;2022-12-07T06:58:43;3.80;99.90
14397;DHT22;50653;47.810;13.022;2022-12-07T07:01:13;3.70;99.90
14397;DHT22;50653;47.810;13.022;2022-12-07T07:03:40;3.70;99.90
14397;DHT22;50653;47.810;13.022;2022-12-07T07:06:06;3.80;99.90
14397;DHT22;50653;47.810;13.022;2022-12-07T07:08:33;3.80;99.90
14397;DHT22;50653;47.810;13.022;2022-12-07T07:10:59;3.80;99.90
14397;DHT22;50653;47.810;13.022;2022-12-07T07:13:25;3.80;99.90
14397;DHT22;50653;47.810;13.022;2022-12-07T07:15:51;3.90;99.90
14397;DHT22;50653;47.810;13.022;2022-12-07T07:18:16;3.90;99.90
14397;DHT22;50653;47.810;13.022;2022-12-07T07:20:42;3.90;99.90
14397;DHT22;50653;47.810;13.022;2022-12-07T07:23:07;3.90;99.90
14397;DHT22;50653;47.810;13.022;2022-12-07T07:25:34;3.90;99.90
14397;DHT22;50653;47.810;13.022;2022-12-07T07:27:59;3.80;99.90
14397;DHT22;50653;47.810;13.022;2022-12-07T07:30:25;3.80;99.90
14397;DHT22;50653;47.810;13.022;2022-12-07T07:32:51;3.80;99.90
14397;DHT22;50653;47.810;13.022;2022-12-07T07:35:21;3.80;99.90
14397;DHT22;50653;47.810;13.022;2022-12-07T07:37:46;3.80;99.90
14397;DHT22;50653;47.810;13.022;2022-12-07T07:40:12;3.80;99.90
14397;DHT22;50653;47.810;13.022;2022-12-07T07:42:37;3.90;99.90
14397;DHT22;50653;47.810;13.022;2022-12-07T07:45:03;3.90;99.90
14397;DHT22;50653;47.810;13.022;2022-12-07T07:47:30;3.90;99.90
14397;DHT22;50653;47.810;13.022;2022-12-07T07:49:55;3.90;99.90
14397;DHT22;50653;47.810;13.022;2022-12-07T07:52:21;3.90;99.90
14397;DHT22;50653;47.810;13.022;2022-12-07T07:54:46;3.80;99.90
14397;DHT22;50653;47.810;13.022;2022-12-07T07:57:12;3.80;99.90
14397;DHT22;50653;47.810;13.022;2022-12-07T07:59:37;3.90;99.90
14397;DHT22;50653;47.810;13.022;2022-12-07T08:02:03;3.90;99.90
14397;DHT22;50653;47.810;13.022;2022-12-07T08:04:29;3.80;99.90
14397;DHT22;50653;47.810;13.022;2022-12-07T08:06:54;3.80;99.90
14397;DHT22;50653;47.810;13.022;2022-12-07T08:09:20;3.70;99.90
14397;DHT22;50653;47.810;13.022;2022-12-07T08:11:45;3.80;99.90
14397;DHT22;50653;47.810;13.022;2022-12-07T08:14:11;3.80;99.90
14397;DHT22;50653;47.810;13.022;2022-12-07T08:16:37;3.80;99.90
14397;DHT22;50653;47.810;13.022;2022-12-07T08:19:04;3.80;99.90
14397;DHT22;50653;47.810;13.022;2022-12-07T08:21:30;3.80;99.90
14397;DHT22;50653;47.810;13.022;2022-12-07T08:23:57;3.90;99.90
14397;DHT22;50653;47.810;13.022;2022-12-07T08:26:22;3.90;99.90
14397;DHT22;50653;47.810;13.022;2022-12-07T08:28:48;3.80;99.90
14397;DHT22;50653;47.810;13.022;2022-12-07T08:31:16;3.80;99.90
14397;DHT22;50653;47.810;13.022;2022-12-07T08:33:44;3.70;99.90
14397;DHT22;50653;47.810;13.022;2022-12-07T08:36:11;3.60;99.90
14397;DHT22;50653;47.810;13.022;2022-12-07T08:38:38;3.50;99.90
14397;DHT22;50653;47.810;13.022;2022-12-07T08:41:05;3.50;99.90
14397;DHT22;50653;47.810;13.022;2022-12-07T08:43:31;3.60;99.90
14397;DHT22;50653;47.810;13.022;2022-12-07T08:46:37;3.60;99.90
14397;DHT22;50653;47.810;13.022;2022-12-07T08:49:13;3.50;99.90
14397;DHT22;50653;47.810;13.022;2022-12-07T08:51:41;3.50;99.90
14397;DHT22;50653;47.810;13.022;2022-12-07T08:54:10;3.50;99.90
14397;DHT22;50653;47.810;13.022;2022-12-07T08:56:36;3.50;99.90
14397;DHT22;50653;47.810;13.022;2022-12-07T08:59:03;3.30;99.90
14397;DHT22;50653;47.810;13.022;2022-12-07T09:01:29;3.20;99.90
14397;DHT22;50653;47.810;13.022;2022-12-07T09:03:55;3.30;99.90
14397;DHT22;50653;47.810;13.022;2022-12-07T09:06:21;3.30;99.90
14397;DHT22;50653;47.810;13.022;2022-12-07T09:08:50;3.40;99.90
14397;DHT22;50653;47.810;13.022;2022-12-07T09:11:16;3.50;99.90
14397;DHT22;50653;47.810;13.022;2022-12-07T09:13:42;3.50;99.90
14397;DHT22;50653;47.810;13.022;2022-12-07T09:16:07;3.60;99.90
14397;DHT22;50653;47.810;13.022;2022-12-07T09:18:33;3.70;99.90
14397;DHT22;50653;47.810;13.022;2022-12-07T09:20:59;3.80;99.90
14397;DHT22;50653;47.810;13.022;2022-12-07T09:23:24;3.80;99.90
14397;DHT22;50653;47.810;13.022;2022-12-07T09:25:50;3.80;99.90
14397;DHT22;50653;47.810;13.022;2022-12-07T09:28:16;3.80;99.90
14397;DHT22;50653;47.810;13.022;2022-12-07T09:30:48;3.80;99.90
14397;DHT22;50653;47.810;13.022;2022-12-07T09:33:15;3.80;99.90
14397;DHT22;50653;47.810;13.022;2022-12-07T09:35:48;3.70;99.90
14397;DHT22;50653;47.810;13.022;2022-12-07T09:38:14;3.70;99.90
14397;DHT22;50653;47.810;13.022;2022-12-07T09:40:40;3.80;99.90
14397;DHT22;50653;47.810;13.022;2022-12-07T09:43:22;3.80;99.90
14397;DHT22;50653;47.810;13.022;2022-12-07T09:45:52;3.80;99.90
14397;DHT22;50653;47.810;13.022;2022-12-07T09:48:20;3.90;99.90
14397;DHT22;50653;47.810;13.022;2022-12-07T09:50:50;3.90;99.90
14397;DHT22;50653;47.810;13.022;2022-12-07T09:53:30;3.90;99.90
14397;DHT22;50653;47.810;13.022;2022-12-07T09:55:59;3.90;99.90
14397;DHT22;50653;47.810;13.022;2022-12-07T09:58:27;4.00;99.90
14397;DHT22;50653;47.810;13.022;2022-12-07T10:01:19;4.00;99.90
14397;DHT22;50653;47.810;13.022;2022-12-07T10:03:54;3.90;99.90
14397;DHT22;50653;47.810;13.022;2022-12-07T10:06:20;3.80;99.90
14397;DHT22;50653;47.810;13.022;2022-12-07T10:08:46;3.90;99.90
14397;DHT22;50653;47.810;13.022;2022-12-07T10:11:12;3.90;99.90
14397;DHT22;50653;47.810;13.022;2022-12-07T10:13:47;3.90;99.90
14397;DHT22;50653;47.810;13.022;2022-12-07T10:16:35;3.90;99.90
14397;DHT22;50653;47.810;13.022;2022-12-07T10:22:00;4.00;99.90
14397;DHT22;50653;47.810;13.022;2022-12-07T10:24:26;4.20;99.90
14397;DHT22;50653;47.810;13.022;2022-12-07T10:26:53;4.20;99.90
14397;DHT22;50653;47.810;13.022;2022-12-07T10:29:22;4.20;99.90
14397;DHT22;50653;47.810;13.022;2022-12-07T10:31:59;4.10;99.90
14397;DHT22;50653;47.810;13.022;2022-12-07T10:34:31;4.10;99.90
14397;DHT22;50653;47.810;13.022;2022-12-07T10:37:17;4.20;99.90
14397;DHT22;50653;47.810;13.022;2022-12-07T10:39:46;4.20;99.90
14397;DHT22;50653;47.810;13.022;2022-12-07T10:42:32;4.20;99.90
14397;DHT22;50653;47.810;13.022;2022-12-07T10:45:15;4.20;99.90
14397;DHT22;50653;47.810;13.022;2022-12-07T11:04:39;4.30;99.90
14397;DHT22;50653;47.810;13.022;2022-12-07T11:07:16;4.20;99.90
14397;DHT22;50653;47.810;13.022;2022-12-07T11:09:52;4.20;99.90
14397;DHT22;50653;47.810;13.022;2022-12-07T11:12:43;4.30;99.90
14397;DHT22;50653;47.810;13.022;2022-12-07T11:15:27;4.30;99.90
14397;DHT22;50653;47.810;13.022;2022-12-07T11:20:42;4.40;99.90
14397;DHT22;50653;47.810;13.022;2022-12-07T11:23:17;4.40;99.90
14397;DHT22;50653;47.810;13.022;2022-12-07T11:25:55;4.40;99.90
14397;DHT22;50653;47.810;13.022;2022-12-07T11:28:53;4.40;99.90
14397;DHT22;50653;47.810;13.022;2022-12-07T11:36:54;4.40;99.90
14397;DHT22;50653;47.810;13.022;2022-12-07T11:41:56;4.40;99.90
14397;DHT22;50653;47.810;13.022;2022-12-07T11:44:52;4.40;99.90
14397;DHT22;50653;47.810;13.022;2022-12-07T11:47:35;4.50;99.90
14397;DHT22;50653;47.810;13.022;2022-12-07T11:50:27;4.40;99.90
14397;DHT22;50653;47.810;13.022;2022-12-07T12:03:43;4.50;99.90
14397;DHT22;50653;47.810;13.022;2022-12-07T12:06:10;4.40;99.90
14397;DHT22;50653;47.810;13.022;2022-12-07T12:08:45;4.40;99.90
14397;DHT22;50653;47.810;13.022;2022-12-07T12:14:21;4.60;99.90
14397;DHT22;50653;47.810;13.022;2022-12-07T12:22:42;4.50;99.90
14397;DHT22;50653;47.810;13.022;2022-12-07T12:25:23;4.50;99.90
14397;DHT22;50653;47.810;13.022;2022-12-07T12:27:50;4.60;99.90
14397;DHT22;50653;47.810;13.022;2022-12-07T12:30:37;4.60;99.90
14397;DHT22;50653;47.810;13.022;2022-12-07T12:33:15;4.70;99.90
14397;DHT22;50653;47.810;13.022;2022-12-07T12:35:43;4.60;99.90
14397;DHT22;50653;47.810;13.022;2022-12-07T12:38:29;4.60;99.90
14397;DHT22;50653;47.810;13.022;2022-12-07T12:40:56;4.70;99.90
14397;DHT22;50653;47.810;13.022;2022-12-07T12:54:37;4.70;99.90
14397;DHT22;50653;47.810;13.022;2022-12-07T12:57:28;4.70;99.90
14397;DHT22;50653;47.810;13.022;2022-12-07T13:02:24;4.70;99.90
14397;DHT22;50653;47.810;13.022;2022-12-07T13:10:34;4.80;99.90
14397;DHT22;50653;47.810;13.022;2022-12-07T13:15:40;4.70;99.90
14397;DHT22;50653;47.810;13.022;2022-12-07T13:28:52;4.60;99.90
14397;DHT22;50653;47.810;13.022;2022-12-07T13:31:45;4.70;99.90
14397;DHT22;50653;47.810;13.022;2022-12-07T13:34:34;4.80;99.90
14397;DHT22;50653;47.810;13.022;2022-12-07T13:37:02;4.80;99.90
14397;DHT22;50653;47.810;13.022;2022-12-07T13:39:29;4.80;99.90
14397;DHT22;50653;47.810;13.022;2022-12-07T13:41:57;4.80;99.90
14397;DHT22;50653;47.810;13.022;2022-12-07T13:44:24;4.80;99.90
14397;DHT22;50653;47.810;13.022;2022-12-07T13:49:28;4.90;99.90
14397;DHT22;50653;47.810;13.022;2022-12-07T13:51:55;4.90;99.90
14397;DHT22;50653;47.810;13.022;2022-12-07T13:54:21;4.90;99.90
14397;DHT22;50653;47.810;13.022;2022-12-07T13:56:52;4.90;99.90
14397;DHT22;50653;47.810;13.022;2022-12-07T13:59:23;5.00;99.90
14397;DHT22;50653;47.810;13.022;2022-12-07T14:01:50;4.90;99.90
14397;DHT22;50653;47.810;13.022;2022-12-07T14:04:37;4.90;99.90
14397;DHT22;50653;47.810;13.022;2022-12-07T14:07:23;4.90;99.90
14397;DHT22;50653;47.810;13.022;2022-12-07T14:10:04;4.90;99.90
14397;DHT22;50653;47.810;13.022;2022-12-07T14:12:31;4.90;99.90
14397;DHT22;50653;47.810;13.022;2022-12-07T14:14:58;4.80;99.90
14397;DHT22;50653;47.810;13.022;2022-12-07T14:17:26;4.80;99.90
14397;DHT22;50653;47.810;13.022;2022-12-07T14:19:57;4.80;99.90
14397;DHT22;50653;47.810;13.022;2022-12-07T14:22:36;4.90;99.90
14397;DHT22;50653;47.810;13.022;2022-12-07T14:27:40;4.90;99.90
14397;DHT22;50653;47.810;13.022;2022-12-07T14:30:17;4.80;99.90
14397;DHT22;50653;47.810;13.022;2022-12-07T14:32:43;4.80;99.90
14397;DHT22;50653;47.810;13.022;2022-12-07T14:35:15;4.80;99.90
14397;DHT22;50653;47.810;13.022;2022-12-07T14:37:43;4.80;99.90
14397;DHT22;50653;47.810;13.022;2022-12-07T14:40:13;4.80;99.90
14397;DHT22;50653;47.810;13.022;2022-12-07T14:42:39;4.80;99.90
14397;DHT22;50653;47.810;13.022;2022-12-07T14:45:10;4.80;99.90
14397;DHT22;50653;47.810;13.022;2022-12-07T14:47:38;4.70;99.90
14397;DHT22;50653;47.810;13.022;2022-12-07T14:50:04;4.80;99.90
14397;DHT22;50653;47.810;13.022;2022-12-07T14:52:29;4.80;99.90
14397;DHT22;50653;47.810;13.022;2022-12-07T14:54:55;4.80;99.90
14397;DHT22;50653;47.810;13.022;2022-12-07T14:57:22;4.80;99.90
14397;DHT22;50653;47.810;13.022;2022-12-07T14:59:47;4.70;99.90
14397;DHT22;50653;47.810;13.022;2022-12-07T15:02:15;4.70;99.90
14397;DHT22;50653;47.810;13.022;2022-12-07T15:04:41;4.70;99.90
14397;DHT22;50653;47.810;13.022;2022-12-07T15:07:18;4.70;99.90
14397;DHT22;50653;47.810;13.022;2022-12-07T15:09:45;4.70;99.90
14397;DHT22;50653;47.810;13.022;2022-12-07T15:12:10;4.70;99.90
14397;DHT22;50653;47.810;13.022;2022-12-07T15:14:36;4.70;99.90
14397;DHT22;50653;47.810;13.022;2022-12-07T15:17:01;4.60;99.90
14397;DHT22;50653;47.810;13.022;2022-12-07T15:19:27;4.60;99.90
14397;DHT22;50653;47.810;13.022;2022-12-07T15:21:53;4.60;99.90
14397;DHT22;50653;47.810;13.022;2022-12-07T15:24:19;4.60;99.90
14397;DHT22;50653;47.810;13.022;2022-12-07T15:26:45;4.60;99.90
14397;DHT22;50653;47.810;13.022;2022-12-07T15:29:11;4.60;99.90
14397;DHT22;50653;47.810;13.022;2022-12-07T15:31:37;4.60;99.90
14397;DHT22;50653;47.810;13.022;2022-12-07T15:34:03;4.60;99.90
14397;DHT22;50653;47.810;13.022;2022-12-07T15:36:31;4.60;99.90
14397;DHT22;50653;47.810;13.022;2022-12-07T15:38:57;4.60;99.90
14397;DHT22;50653;47.810;13.022;2022-12-07T15:41:23;4.60;99.90
14397;DHT22;50653;47.810;13.022;2022-12-07T15:43:49;4.60;99.90
14397;DHT22;50653;47.810;13.022;2022-12-07T15:46:35;4.60;99.90
14397;DHT22;50653;47.810;13.022;2022-12-07T15:49:01;4.50;99.90
14397;DHT22;50653;47.810;13.022;2022-12-07T15:51:27;4.50;99.90
14397;DHT22;50653;47.810;13.022;2022-12-07T15:53:53;4.50;99.90
14397;DHT22;50653;47.810;13.022;2022-12-07T15:56:19;4.60;99.90
14397;DHT22;50653;47.810;13.022;2022-12-07T15:58:45;4.60;99.90
14397;DHT22;50653;47.810;13.022;2022-12-07T16:01:18;4.60;99.90
14397;DHT22;50653;47.810;13.022;2022-12-07T16:03:44;4.60;99.90
14397;DHT22;50653;47.810;13.022;2022-12-07T16:06:11;4.60;99.90
14397;DHT22;50653;47.810;13.022;2022-12-07T16:08:36;4.60;99.90
14397;DHT22;50653;47.810;13.022;2022-12-07T16:11:06;4.50;99.90
14397;DHT22;50653;47.810;13.022;2022-12-07T16:13:32;4.50;99.90
14397;DHT22;50653;47.810;13.022;2022-12-07T16:15:58;4.50;99.90
14397;DHT22;50653;47.810;13.022;2022-12-07T16:18:23;4.50;99.90
14397;DHT22;50653;47.810;13.022;2022-12-07T16:20:49;4.40;99.90
14397;DHT22;50653;47.810;13.022;2022-12-07T16:23:15;4.50;99.90
14397;DHT22;50653;47.810;13.022;2022-12-07T16:25:40;4.50;99.90
14397;DHT22;50653;47.810;13.022;2022-12-07T16:28:07;4.50;99.90
14397;DHT22;50653;47.810;13.022;2022-12-07T16:30:33;4.60;99.90
14397;DHT22;50653;47.810;13.022;2022-12-07T16:32:59;4.60;99.90
14397;DHT22;50653;47.810;13.022;2022-12-07T16:35:25;4.40;99.90
14397;DHT22;50653;47.810;13.022;2022-12-07T16:37:50;4.50;99.90
14397;DHT22;50653;47.810;13.022;2022-12-07T16:40:16;4.40;99.90
14397;DHT22;50653;47.810;13.022;2022-12-07T16:42:41;4.40;99.90
14397;DHT22;50653;47.810;13.022;2022-12-07T16:45:07;4.50;99.90
14397;DHT22;50653;47.810;13.022;2022-12-07T16:47:33;4.50;99.90
14397;DHT22;50653;47.810;13.022;2022-12-07T16:50:02;4.50;99.90
14397;DHT22;50653;47.810;13.022;2022-12-07T16:52:27;4.50;99.90
14397;DHT22;50653;47.810;13.022;2022-12-07T16:54:53;4.50;99.90
14397;DHT22;50653;47.810;13.022;2022-12-07T16:57:18;4.50;99.90
14397;DHT22;50653;47.810;13.022;2022-12-07T16:59:45;4.50;99.90
14397;DHT22;50653;47.810;13.022;2022-12-07T17:02:11;4.60;99.90
14397;DHT22;50653;47.810;13.022;2022-12-07T17:04:37;4.60;99.90
14397;DHT22;50653;47.810;13.022;2022-12-07T17:07:05;4.50;99.90
14397;DHT22;50653;47.810;13.022;2022-12-07T17:09:31;4.60;99.90
14397;DHT22;50653;47.810;13.022;2022-12-07T17:11:57;4.50;99.90
14397;DHT22;50653;47.810;13.022;2022-12-07T17:14:23;4.50;99.90
14397;DHT22;50653;47.810;13.022;2022-12-07T17:17:07;4.50;99.90
14397;DHT22;50653;47.810;13.022;2022-12-07T17:19:33;4.50;99.90
14397;DHT22;50653;47.810;13.022;2022-12-07T17:21:58;4.60;99.90
14397;DHT22;50653;47.810;13.022;2022-12-07T17:24:24;4.50;99.90
14397;DHT22;50653;47.810;13.022;2022-12-07T17:26:49;4.50;99.90
14397;DHT22;50653;47.810;13.022;2022-12-07T17:29:17;4.50;99.90
14397;DHT22;50653;47.810;13.022;2022-12-07T17:31:43;4.50;99.90
14397;DHT22;50653;47.810;13.022;2022-12-07T17:34:13;4.40;99.90
14397;DHT22;50653;47.810;13.022;2022-12-07T17:36:39;4.40;99.90
14397;DHT22;50653;47.810;13.022;2022-12-07T17:39:09;4.50;99.90
14397;DHT22;50653;47.810;13.022;2022-12-07T17:41:36;4.50;99.90
14397;DHT22;50653;47.810;13.022;2022-12-07T17:44:20;4.50;99.90
14397;DHT22;50653;47.810;13.022;2022-12-07T17:46:48;4.40;99.90
14397;DHT22;50653;47.810;13.022;2022-12-07T17:49:14;4.40;99.90